Time;durP1;ratioP1;P1;durP2;ratioP2;P2;SDS_P1;SDS_P2;PMS_P1;PMS_P2;Temp;Humidity;BMP_temperature;BMP_pressure;BME280_temperature;BME280_humidity;BME280_pressure;Samples;Min_cycle;Max_cycle;Signal;HPM_P1;HPM_P2
2021/03/02 00:02:14;;;;;;;124.18;34.38;;;3.60;99.90;;;;;;5109928;28;20129;-67
2021/03/02 00:04:46;;;;;;;124.70;34.75;;;3.60;99.90;;;;;;5104514;28;20036;-67
2021/03/02 00:07:16;;;;;;;118.57;32.03;;;3.60;99.90;;;;;;5112642;28;20044;-67
2021/03/02 00:09:43;;;;;;;109.88;31.65;;;3.60;99.90;;;;;;5109110;28;20042;-67
2021/03/02 00:12:10;;;;;;;91.88;24.45;;;3.60;99.90;;;;;;5117450;28;20054;-67
2021/03/02 00:14:36;;;;;;;138.68;35.55;;;3.60;99.90;;;;;;5125109;28;20093;-67
2021/03/02 00:17:08;;;;;;;102.47;27.27;;;3.60;99.90;;;;;;5118243;28;20047;-67
2021/03/02 00:19:44;;;;;;;116.78;33.63;;;3.60;99.90;;;;;;5118864;28;20047;-67
2021/03/02 00:22:26;;;;;;;113.57;35.38;;;3.60;99.90;;;;;;5107670;28;20067;-67
2021/03/02 00:24:54;;;;;;;114.10;31.10;;;3.60;99.90;;;;;;5107431;28;20043;-67
2021/03/02 00:27:22;;;;;;;83.47;27.77;;;3.60;99.90;;;;;;5107217;28;20050;-67
2021/03/02 00:29:49;;;;;;;129.23;37.30;;;3.60;99.90;;;;;;5107356;28;20051;-67
2021/03/02 00:32:20;;;;;;;141.90;37.38;;;3.60;99.90;;;;;;5109851;28;20052;-67
2021/03/02 00:34:47;;;;;;;148.75;37.85;;;3.70;99.90;;;;;;5109668;28;20074;-67
2021/03/02 00:37:13;;;;;;;60.67;25.02;;;3.70;99.90;;;;;;5110571;28;20041;-67
2021/03/02 00:39:39;;;;;;;67.53;23.60;;;3.60;99.90;;;;;;5113524;28;20063;-67
2021/03/02 00:42:05;;;;;;;93.18;27.95;;;3.60;99.90;;;;;;5106743;28;20151;-67
2021/03/02 00:44:31;;;;;;;139.18;35.75;;;3.60;99.90;;;;;;5106853;28;20044;-67
2021/03/02 00:46:57;;;;;;;143.27;36.20;;;3.60;99.90;;;;;;5120358;28;20047;-67
2021/03/02 00:49:23;;;;;;;112.50;30.83;;;3.60;99.90;;;;;;5121787;28;20051;-67
2021/03/02 00:51:48;;;;;;;141.45;36.17;;;3.60;99.90;;;;;;5118217;28;20476;-67
2021/03/02 00:54:14;;;;;;;120.25;33.00;;;3.60;99.90;;;;;;5122502;28;20048;-67
2021/03/02 00:56:40;;;;;;;89.03;25.92;;;3.60;99.90;;;;;;5123314;28;20122;-67
2021/03/02 00:59:06;;;;;;;82.57;25.92;;;3.60;99.90;;;;;;5124628;28;20616;-67
2021/03/02 01:01:32;;;;;;;117.95;34.83;;;3.60;99.90;;;;;;5113950;28;20047;-67
2021/03/02 01:03:58;;;;;;;94.07;30.27;;;3.60;99.90;;;;;;5120843;28;20399;-67
2021/03/02 01:06:24;;;;;;;103.80;33.58;;;3.50;99.90;;;;;;5120079;28;20103;-67
2021/03/02 01:08:50;;;;;;;68.38;24.77;;;3.60;99.90;;;;;;5106392;28;20059;-67
2021/03/02 01:11:16;;;;;;;99.35;32.63;;;3.50;99.90;;;;;;5106593;28;20423;-67
2021/03/02 01:13:42;;;;;;;63.38;20.92;;;3.50;99.90;;;;;;5106835;28;20065;-67
2021/03/02 01:16:08;;;;;;;64.22;21.33;;;3.50;99.90;;;;;;5105982;28;20048;-67
2021/03/02 01:18:34;;;;;;;110.50;34.03;;;3.50;99.90;;;;;;5104833;28;20040;-67
2021/03/02 01:20:59;;;;;;;131.38;36.63;;;3.50;99.90;;;;;;5106032;28;20071;-67
2021/03/02 01:23:25;;;;;;;113.00;30.95;;;3.50;99.90;;;;;;5106652;28;20052;-67
2021/03/02 01:25:51;;;;;;;90.47;26.70;;;3.50;99.90;;;;;;5112590;28;20059;-67
2021/03/02 01:28:17;;;;;;;56.75;20.77;;;3.40;99.90;;;;;;5109312;28;20051;-67
2021/03/02 01:30:43;;;;;;;106.18;33.35;;;3.30;99.90;;;;;;5106045;28;20051;-67
2021/03/02 01:33:09;;;;;;;103.88;33.00;;;3.30;99.90;;;;;;5109980;28;20073;-67
2021/03/02 01:35:35;;;;;;;63.08;23.58;;;3.20;99.90;;;;;;5113006;28;20128;-67
2021/03/02 01:38:01;;;;;;;89.07;27.05;;;3.20;99.90;;;;;;5112547;28;20076;-67
2021/03/02 01:40:27;;;;;;;85.80;25.65;;;3.20;99.90;;;;;;5105553;28;20059;-67
2021/03/02 01:42:52;;;;;;;102.57;32.15;;;3.20;99.90;;;;;;5105542;28;20113;-67
2021/03/02 01:45:19;;;;;;;88.55;27.20;;;3.10;99.90;;;;;;5120388;28;20076;-67
2021/03/02 01:47:52;;;;;;;72.30;23.63;;;3.10;99.90;;;;;;5118642;28;20072;-67
2021/03/02 01:50:20;;;;;;;59.70;21.30;;;3.10;99.90;;;;;;5105990;28;20044;-67
2021/03/02 01:52:46;;;;;;;;;;;3.10;99.90;;;;;;5111144;28;20046;-67
2021/03/02 01:55:15;;;;;;;148.63;36.58;;;3.10;99.90;;;;;;5118782;28;20018;-67
2021/03/02 01:57:41;;;;;;;115.00;31.30;;;3.20;99.90;;;;;;5110965;28;20055;-67
2021/03/02 02:00:21;;;;;;;151.68;39.45;;;3.20;99.90;;;;;;5108768;28;20044;-67
2021/03/02 02:02:47;;;;;;;142.77;38.55;;;3.20;99.90;;;;;;5104956;28;20044;-67
2021/03/02 02:05:14;;;;;;;137.50;34.88;;;3.30;99.90;;;;;;5105559;28;20044;-67
2021/03/02 02:07:47;;;;;;;157.23;38.33;;;3.30;99.90;;;;;;5110635;28;20071;-67
2021/03/02 02:10:24;;;;;;;171.70;37.47;;;3.30;99.90;;;;;;5105268;28;20054;-67
2021/03/02 02:13:08;;;;;;;181.50;37.33;;;3.30;99.90;;;;;;5106848;28;20104;-67
2021/03/02 02:15:37;;;;;;;62.60;19.90;;;3.20;99.90;;;;;;5117427;28;20107;-67
2021/03/02 02:18:13;;;;;;;132.32;33.95;;;3.10;99.90;;;;;;5106573;28;20044;-67
2021/03/02 02:20:48;;;;;;;153.85;38.28;;;3.10;99.90;;;;;;5105458;28;20047;-67
2021/03/02 02:23:35;;;;;;;90.40;26.45;;;3.10;99.90;;;;;;5115890;28;20044;-67
2021/03/02 02:26:38;;;;;;;112.07;30.38;;;3.00;99.90;;;;;;5124123;28;20047;-67
2021/03/02 02:29:06;;;;;;;94.97;29.88;;;3.00;99.90;;;;;;5104685;28;20044;-67
2021/03/02 02:31:33;;;;;;;117.63;35.40;;;3.00;99.90;;;;;;5109072;28;20136;-67
2021/03/02 02:34:01;;;;;;;113.32;30.05;;;3.00;99.90;;;;;;5104702;28;20107;-67
2021/03/02 02:36:27;;;;;;;;;;;3.10;99.90;;;;;;5110456;28;20044;-67
2021/03/02 02:38:58;;;;;;;98.18;26.95;;;3.10;99.90;;;;;;5104533;28;19946;-67
2021/03/02 02:41:27;;;;;;;73.03;22.52;;;3.10;99.90;;;;;;5104344;28;20869;-67
2021/03/02 02:43:57;;;;;;;133.15;36.60;;;3.10;99.90;;;;;;5104672;28;20490;-67
2021/03/02 02:46:25;;;;;;;136.38;38.75;;;3.10;99.90;;;;;;5118203;28;20125;-67
2021/03/02 02:48:52;;;;;;;137.15;37.13;;;3.20;99.90;;;;;;5104873;28;20051;-67
2021/03/02 02:51:19;;;;;;;135.90;37.45;;;3.20;99.90;;;;;;5119450;28;20056;-67
2021/03/02 02:53:46;;;;;;;140.00;39.22;;;3.20;99.90;;;;;;5123096;28;20040;-67
2021/03/02 02:56:16;;;;;;;183.27;42.80;;;3.20;99.90;;;;;;5123572;28;20039;-67
2021/03/02 02:59:16;;;;;;;120.10;32.55;;;3.20;99.90;;;;;;5115744;28;20052;-67
2021/03/02 03:01:58;;;;;;;107.72;33.90;;;3.20;99.90;;;;;;5103575;28;20067;-67
2021/03/02 03:04:36;;;;;;;98.40;32.25;;;3.10;99.90;;;;;;5111884;28;20040;-67
2021/03/02 03:07:04;;;;;;;119.55;37.00;;;3.10;99.90;;;;;;5106613;28;20558;-67
2021/03/02 03:09:30;;;;;;;61.15;24.40;;;3.10;99.90;;;;;;5111854;28;20066;-67
2021/03/02 03:12:00;;;;;;;130.23;39.00;;;3.10;99.90;;;;;;5106880;28;20040;-67
2021/03/02 03:14:28;;;;;;;103.18;35.15;;;3.10;99.90;;;;;;5104248;28;20064;-67
2021/03/02 03:16:56;;;;;;;77.22;27.98;;;3.10;99.90;;;;;;5105198;28;20040;-67
2021/03/02 03:19:25;;;;;;;88.30;29.90;;;3.00;99.90;;;;;;5104019;28;20044;-67
2021/03/02 03:21:52;;;;;;;102.88;33.53;;;2.90;99.90;;;;;;5118628;28;20058;-67
2021/03/02 03:24:22;;;;;;;115.57;31.83;;;2.80;99.90;;;;;;5104300;28;20044;-67
2021/03/02 03:26:50;;;;;;;101.68;32.00;;;2.80;99.90;;;;;;5122671;28;20043;-67
2021/03/02 03:29:18;;;;;;;102.40;33.38;;;2.80;99.90;;;;;;5111064;28;20040;-67
2021/03/02 03:31:45;;;;;;;;;;;2.80;99.90;;;;;;5105427;28;20126;-67
2021/03/02 03:34:12;;;;;;;125.22;39.38;;;2.80;99.90;;;;;;5109258;28;20368;-67
2021/03/02 03:36:39;;;;;;;127.03;38.03;;;2.80;99.90;;;;;;5111730;28;20137;-67
2021/03/02 03:39:05;;;;;;;114.38;33.35;;;2.80;99.90;;;;;;5104063;28;20158;-67
2021/03/02 03:41:31;;;;;;;117.15;36.80;;;2.90;99.90;;;;;;5112575;28;20043;-67
2021/03/02 03:43:57;;;;;;;57.83;32.05;;;2.80;99.90;;;;;;5108589;28;20043;-67
2021/03/02 03:46:23;;;;;;;99.72;29.30;;;2.80;99.90;;;;;;5103697;28;20066;-67
2021/03/02 03:48:48;;;;;;;111.15;30.10;;;2.80;99.90;;;;;;5103717;28;20118;-67
2021/03/02 03:51:15;;;;;;;143.68;35.38;;;2.80;99.90;;;;;;5108828;28;20051;-67
2021/03/02 03:53:42;;;;;;;111.85;29.45;;;2.70;99.90;;;;;;5112682;28;20048;-67
2021/03/02 03:56:08;;;;;;;113.17;31.60;;;2.80;99.90;;;;;;5117109;28;20415;-67
2021/03/02 03:58:35;;;;;;;175.32;40.03;;;2.80;99.90;;;;;;5112267;28;20043;-67
2021/03/02 04:01:03;;;;;;;117.85;28.35;;;2.80;99.90;;;;;;5113591;28;20035;-67
2021/03/02 04:03:31;;;;;;;192.20;42.33;;;2.80;99.90;;;;;;5111130;28;20556;-67
2021/03/02 04:05:59;;;;;;;154.75;38.88;;;2.80;99.90;;;;;;5109056;28;20179;-67
2021/03/02 04:08:26;;;;;;;90.60;29.48;;;2.80;99.90;;;;;;5103509;28;20056;-67
2021/03/02 04:10:52;;;;;;;196.90;45.67;;;2.80;99.90;;;;;;5111061;28;20047;-67
2021/03/02 04:13:18;;;;;;;125.85;32.75;;;2.80;99.90;;;;;;5117537;28;20058;-67
2021/03/02 04:15:45;;;;;;;157.88;38.80;;;2.80;99.90;;;;;;5103218;28;20071;-67
2021/03/02 04:18:13;;;;;;;192.32;39.30;;;2.80;99.90;;;;;;5102626;28;20055;-67
2021/03/02 04:20:40;;;;;;;160.10;33.28;;;2.80;99.90;;;;;;5103432;28;20044;-67
2021/03/02 04:23:06;;;;;;;181.93;35.53;;;2.80;99.90;;;;;;5103559;28;20059;-67
2021/03/02 04:25:32;;;;;;;58.78;27.30;;;2.80;99.90;;;;;;5103761;28;20060;-67
2021/03/02 04:27:59;;;;;;;172.45;43.35;;;2.70;99.90;;;;;;5112578;28;20062;-67
2021/03/02 04:30:25;;;;;;;70.93;25.10;;;2.70;99.90;;;;;;5121428;28;20055;-67
2021/03/02 04:32:51;;;;;;;152.38;41.67;;;2.70;99.90;;;;;;5102508;28;20103;-67
2021/03/02 04:35:17;;;;;;;108.78;30.27;;;2.70;99.90;;;;;;5121533;28;20055;-67
2021/03/02 04:37:43;;;;;;;188.20;44.40;;;2.70;99.90;;;;;;5103333;28;20051;-67
2021/03/02 04:40:10;;;;;;;141.52;35.67;;;2.70;99.90;;;;;;5102923;28;20072;-67
2021/03/02 04:42:35;;;;;;;67.88;22.63;;;2.70;99.90;;;;;;5103003;28;20040;-67
2021/03/02 04:45:02;;;;;;;76.28;26.05;;;2.70;99.90;;;;;;5103070;28;20131;-67
2021/03/02 04:47:28;;;;;;;182.68;45.92;;;2.70;99.90;;;;;;5102747;28;20110;-67
2021/03/02 04:49:54;;;;;;;114.53;29.65;;;2.70;99.90;;;;;;5116124;28;20040;-67
2021/03/02 04:52:19;;;;;;;226.70;45.40;;;2.70;99.90;;;;;;5111143;28;20044;-67
2021/03/02 04:54:45;;;;;;;114.28;26.70;;;2.80;99.90;;;;;;5119781;28;20047;-67
2021/03/02 04:57:11;;;;;;;137.65;31.27;;;2.70;99.90;;;;;;5106466;28;20056;-67
2021/03/02 04:59:37;;;;;;;189.23;45.33;;;2.70;99.90;;;;;;5115721;28;20040;-67
2021/03/02 05:02:03;;;;;;;119.47;31.27;;;2.80;99.90;;;;;;5107961;28;20096;-67
2021/03/02 05:04:29;;;;;;;106.82;27.15;;;2.70;99.90;;;;;;5121911;28;20228;-67
2021/03/02 05:06:55;;;;;;;177.18;38.45;;;2.60;99.90;;;;;;5118427;28;20068;-67
2021/03/02 05:09:20;;;;;;;167.75;35.25;;;2.60;99.90;;;;;;5119644;28;20538;-67
2021/03/02 05:11:46;;;;;;;145.43;30.05;;;2.60;99.90;;;;;;5111291;28;20049;-67
2021/03/02 05:14:12;;;;;;;187.45;36.50;;;2.50;99.90;;;;;;5114344;28;20567;-67
2021/03/02 05:16:38;;;;;;;95.20;23.88;;;2.50;99.90;;;;;;5109986;28;20040;-67
2021/03/02 05:19:04;;;;;;;227.57;41.22;;;2.40;99.90;;;;;;5106381;28;20052;-67
2021/03/02 05:21:30;;;;;;;69.60;21.20;;;2.40;99.90;;;;;;5106013;28;20104;-67
2021/03/02 05:23:56;;;;;;;184.15;39.65;;;2.40;99.90;;;;;;5106956;28;20044;-67
2021/03/02 05:26:21;;;;;;;174.80;40.33;;;2.50;99.90;;;;;;5106403;28;20047;-67
2021/03/02 05:28:48;;;;;;;165.02;36.53;;;2.50;99.90;;;;;;5108676;28;20040;-67
2021/03/02 05:31:14;;;;;;;171.83;39.20;;;2.50;99.90;;;;;;5115182;28;20047;-67
2021/03/02 05:33:40;;;;;;;155.68;33.20;;;2.50;99.90;;;;;;5124722;28;20044;-67
2021/03/02 05:36:11;;;;;;;210.80;42.58;;;2.50;99.90;;;;;;5106441;28;20063;-67
2021/03/02 05:38:37;;;;;;;235.77;41.13;;;2.50;99.90;;;;;;5105999;28;20059;-67
2021/03/02 05:41:03;;;;;;;297.08;49.70;;;2.60;99.90;;;;;;5111153;28;20095;-67
2021/03/02 05:43:32;;;;;;;109.82;22.73;;;2.50;99.90;;;;;;5124922;28;20043;-67
2021/03/02 05:45:59;;;;;;;81.90;22.73;;;2.40;99.90;;;;;;5111710;28;20057;-67
2021/03/02 05:48:28;;;;;;;158.13;31.15;;;2.30;99.90;;;;;;5111435;28;20071;-67
2021/03/02 05:50:54;;;;;;;188.55;33.03;;;2.30;99.90;;;;;;5108921;28;20047;-67
2021/03/02 05:53:21;;;;;;;116.72;26.52;;;2.30;99.90;;;;;;5112520;28;20052;-67
2021/03/02 05:55:47;;;;;;;162.63;33.90;;;2.30;99.90;;;;;;5105824;28;20738;-67
2021/03/02 05:58:14;;;;;;;91.72;22.65;;;2.30;99.90;;;;;;5105424;28;20040;-67
2021/03/02 06:00:40;;;;;;;199.98;41.55;;;2.30;99.90;;;;;;5105935;28;20050;-67
2021/03/02 06:03:06;;;;;;;171.68;37.58;;;2.30;99.90;;;;;;5111331;28;20056;-67
2021/03/02 06:05:37;;;;;;;180.25;37.83;;;2.30;99.90;;;;;;5108222;28;20048;-67
2021/03/02 06:08:07;;;;;;;211.75;39.40;;;2.30;99.90;;;;;;5105117;28;20040;-67
2021/03/02 06:10:33;;;;;;;58.95;22.05;;;2.30;99.90;;;;;;5107750;28;20449;-67
2021/03/02 06:13:00;;;;;;;116.72;24.83;;;2.30;99.90;;;;;;5105434;28;20047;-67
2021/03/02 06:15:34;;;;;;;379.27;46.10;;;2.30;99.90;;;;;;5105666;28;20055;-67
2021/03/02 06:18:16;;;;;;;56.63;19.15;;;2.30;99.90;;;;;;5104345;28;20043;-67
2021/03/02 06:20:43;;;;;;;224.10;36.85;;;2.20;99.90;;;;;;5118180;28;20036;-65
2021/03/02 06:23:26;;;;;;;352.60;43.58;;;2.20;99.90;;;;;;5104432;28;20052;-65
2021/03/02 06:26:13;;;;;;;280.15;40.70;;;2.10;99.90;;;;;;5111501;28;20232;-65
2021/03/02 06:28:44;;;;;;;89.28;23.30;;;2.10;99.90;;;;;;5109344;28;20118;-66
2021/03/02 06:31:30;;;;;;;271.73;37.10;;;2.10;99.90;;;;;;5105163;28;20118;-66
2021/03/02 06:34:16;;;;;;;163.05;23.25;;;2.10;99.90;;;;;;5105111;28;20048;-66
2021/03/02 06:36:57;;;;;;;313.40;38.97;;;2.10;99.90;;;;;;5104791;28;20036;-66
2021/03/02 06:39:26;;;;;;;252.82;37.50;;;2.10;99.90;;;;;;5117019;28;20063;-66
2021/03/02 06:41:53;;;;;;;224.00;29.58;;;2.10;99.90;;;;;;5104685;28;20040;-66
2021/03/02 06:44:19;;;;;;;133.80;22.95;;;2.10;99.90;;;;;;5117615;28;20040;-66
2021/03/02 06:46:45;;;;;;;153.15;25.05;;;2.00;99.90;;;;;;5104330;28;20124;-66
2021/03/02 06:49:11;;;;;;;220.23;28.92;;;2.00;99.90;;;;;;5106951;28;20044;-67
2021/03/02 06:51:39;;;;;;;152.32;22.23;;;2.00;99.90;;;;;;5113632;28;20067;-67
2021/03/02 06:54:05;;;;;;;217.63;24.90;;;2.00;99.90;;;;;;5114323;28;20143;-66
2021/03/02 06:56:31;;;;;;;68.32;18.02;;;1.90;99.90;;;;;;5114853;28;20056;-66
2021/03/02 06:59:16;;;;;;;271.20;33.80;;;1.80;99.90;;;;;;5104536;28;20093;-66
2021/03/02 07:01:48;;;;;;;408.38;44.10;;;1.80;99.90;;;;;;5104292;28;20151;-66
2021/03/02 07:04:16;;;;;;;323.90;36.03;;;1.80;99.90;;;;;;5114194;28;20228;-67
2021/03/02 07:06:44;;;;;;;222.93;29.60;;;1.70;99.90;;;;;;5113169;28;20039;-66
2021/03/02 07:09:15;;;;;;;78.00;18.30;;;1.80;99.90;;;;;;5114979;28;20055;-66
2021/03/02 07:11:43;;;;;;;270.73;35.05;;;1.70;99.90;;;;;;5122922;28;20047;-67
2021/03/02 07:14:10;;;;;;;175.32;27.30;;;1.80;99.90;;;;;;5120083;28;20048;-66
2021/03/02 07:16:39;;;;;;;455.48;47.33;;;1.80;99.90;;;;;;5105293;28;20048;-66
2021/03/02 07:19:06;;;;;;;281.10;43.38;;;1.80;99.90;;;;;;5104204;28;20044;-66
2021/03/02 07:21:39;;;;;;;367.40;43.05;;;1.80;99.90;;;;;;5104073;28;20067;-66
2021/03/02 07:24:09;;;;;;;284.10;45.38;;;1.90;99.90;;;;;;5109741;28;20043;-66
2021/03/02 07:26:37;;;;;;;272.83;43.05;;;2.00;99.90;;;;;;5111421;28;20040;-66
2021/03/02 07:29:04;;;;;;;227.27;36.05;;;2.00;99.90;;;;;;5104149;28;20047;-66
2021/03/02 07:31:37;;;;;;;281.00;41.70;;;2.00;99.90;;;;;;5103829;28;20095;-66
2021/03/02 07:34:05;;;;;;;245.85;40.15;;;2.00;99.90;;;;;;5103867;28;20104;-66
2021/03/02 07:36:40;;;;;;;188.70;32.55;;;2.00;99.90;;;;;;5103758;28;20604;-66
2021/03/02 07:39:29;;;;;;;237.10;42.92;;;2.00;99.90;;;;;;5103451;28;20040;-66
2021/03/02 07:41:56;;;;;;;293.98;46.50;;;2.20;99.90;;;;;;5103756;28;20048;-67
2021/03/02 07:44:24;;;;;;;251.10;41.83;;;2.20;99.90;;;;;;5104499;28;20048;-66
2021/03/02 07:46:53;;;;;;;244.57;42.90;;;2.20;99.90;;;;;;5113682;28;20344;-66
2021/03/02 07:49:22;;;;;;;171.95;31.50;;;2.30;99.90;;;;;;5119353;28;20043;-66
2021/03/02 07:51:56;;;;;;;191.10;35.83;;;2.20;99.90;;;;;;5108591;28;20446;-66
2021/03/02 07:54:23;;;;;;;110.35;25.10;;;2.20;99.90;;;;;;5103842;28;20043;-67
2021/03/02 07:56:50;;;;;;;53.83;16.98;;;2.10;99.90;;;;;;5103658;28;20039;-67
2021/03/02 07:59:17;;;;;;;304.60;44.85;;;2.00;99.90;;;;;;5105205;28;20507;-66
2021/03/02 08:01:43;;;;;;;221.02;37.50;;;2.20;99.90;;;;;;5116222;28;20040;-66
2021/03/02 08:04:28;;;;;;;105.70;23.05;;;2.10;99.90;;;;;;5116308;28;20054;-66
2021/03/02 08:07:13;;;;;;;96.07;24.98;;;2.10;99.90;;;;;;5105939;28;20036;-66
2021/03/02 08:09:39;;;;;;;122.72;29.25;;;2.20;99.90;;;;;;5106156;28;20082;-66
2021/03/02 08:12:40;;;;;;;130.60;30.48;;;2.20;99.90;;;;;;5107690;28;20044;-66
2021/03/02 08:15:12;;;;;;;117.65;27.05;;;2.20;99.90;;;;;;5040074;28;20076;-67
2021/03/02 08:17:38;;;;;;;63.70;20.70;;;2.20;99.90;;;;;;5040175;28;20057;-67
2021/03/02 08:20:06;;;;;;;124.72;27.00;;;2.20;99.90;;;;;;5041223;28;20075;-67
2021/03/02 08:22:33;;;;;;;87.93;22.63;;;2.20;99.90;;;;;;5053094;28;20057;-65
2021/03/02 08:25:04;;;;;;;127.13;32.67;;;2.20;99.90;;;;;;5040211;28;20038;-65
2021/03/02 08:27:41;;;;;;;104.82;29.80;;;2.30;99.90;;;;;;5042639;28;20041;-65
2021/03/02 08:30:10;;;;;;;122.53;30.40;;;2.30;99.90;;;;;;5044479;28;20061;-67
2021/03/02 08:32:36;;;;;;;48.05;20.50;;;2.40;99.90;;;;;;5043708;28;20049;-66
2021/03/02 08:35:10;;;;;;;107.38;26.58;;;2.30;99.90;;;;;;5043787;28;20042;-66
2021/03/02 08:37:42;;;;;;;148.63;36.80;;;2.30;99.90;;;;;;5043617;28;20108;-65
2021/03/02 08:40:10;;;;;;;66.35;24.48;;;2.40;99.90;;;;;;5043711;28;20116;-65
2021/03/02 08:42:37;;;;;;;72.78;25.08;;;2.40;99.90;;;;;;5043829;28;20084;-65
2021/03/02 08:45:08;;;;;;;65.67;24.17;;;2.30;99.90;;;;;;5044223;28;20153;-65
2021/03/02 08:47:36;;;;;;;71.85;25.83;;;2.40;99.90;;;;;;5043327;28;20084;-65
2021/03/02 08:50:04;;;;;;;75.35;26.95;;;2.50;99.90;;;;;;5102894;28;20056;-66
2021/03/02 08:52:56;;;;;;;71.57;30.17;;;2.50;99.90;;;;;;5124126;28;20046;-67
2021/03/02 08:55:36;;;;;;;92.63;29.85;;;2.50;99.90;;;;;;5111090;28;20056;-66
2021/03/02 08:58:03;;;;;;;91.25;29.60;;;2.60;99.90;;;;;;5111739;28;20055;-65
2021/03/02 09:00:29;;;;;;;98.85;32.78;;;2.70;99.90;;;;;;5115916;28;20055;-66
2021/03/02 09:02:54;;;;;;;93.97;32.42;;;2.80;99.90;;;;;;5116685;28;20040;-66
2021/03/02 09:05:20;;;;;;;63.10;21.10;;;2.90;99.90;;;;;;5117665;28;20084;-67
2021/03/02 09:08:08;;;;;;;84.13;29.02;;;2.80;99.90;;;;;;5106433;28;20468;-66
2021/03/02 09:10:35;;;;;;;78.32;31.02;;;2.80;99.90;;;;;;5116033;28;20526;-67
2021/03/02 09:13:06;;;;;;;59.37;25.90;;;2.90;99.90;;;;;;5107304;28;20480;-67
2021/03/02 09:15:39;;;;;;;64.72;25.00;;;3.00;99.90;;;;;;5122116;28;20557;-67
2021/03/02 09:18:16;;;;;;;79.80;28.50;;;3.00;99.90;;;;;;5114309;28;20044;-68
2021/03/02 09:20:55;;;;;;;77.53;30.02;;;3.00;99.90;;;;;;5107775;28;20070;-67
2021/03/02 09:23:22;;;;;;;75.32;29.10;;;3.20;99.90;;;;;;5106313;28;20134;-67
2021/03/02 09:25:51;;;;;;;69.93;31.08;;;3.40;99.90;;;;;;5106253;28;20036;-67
2021/03/02 09:28:20;;;;;;;70.82;29.73;;;3.50;99.90;;;;;;5106002;28;20055;-67
2021/03/02 09:30:46;;;;;;;75.00;30.00;;;3.60;99.90;;;;;;5107515;28;20048;-67
2021/03/02 09:33:13;;;;;;;66.30;28.10;;;3.80;99.90;;;;;;5114398;28;20052;-67
2021/03/02 09:35:41;;;;;;;58.63;28.15;;;3.70;99.90;;;;;;5106998;28;20048;-67
2021/03/02 09:38:07;;;;;;;62.78;27.42;;;3.70;99.90;;;;;;5105030;28;20051;-67
2021/03/02 09:40:40;;;;;;;66.32;29.52;;;3.80;99.90;;;;;;5120745;28;20059;-67
2021/03/02 09:43:06;;;;;;;58.60;27.45;;;4.00;99.90;;;;;;5113912;28;20044;-67
2021/03/02 09:45:32;;;;;;;59.03;28.80;;;4.20;99.90;;;;;;5106479;28;20052;-67
2021/03/02 09:48:01;;;;;;;57.22;27.67;;;4.30;99.90;;;;;;5111752;28;20376;-67
2021/03/02 09:50:36;;;;;;;55.03;26.20;;;4.30;99.90;;;;;;5119314;28;20046;-67
2021/03/02 09:53:11;;;;;;;53.63;26.75;;;4.30;99.90;;;;;;5124781;28;20042;-67
2021/03/02 09:55:37;;;;;;;38.92;18.20;;;4.10;99.90;;;;;;5106208;28;20044;-67
2021/03/02 09:58:13;;;;;;;51.67;25.58;;;3.80;99.90;;;;;;5111606;28;20092;-67
2021/03/02 10:00:48;;;;;;;49.83;25.23;;;3.80;99.90;;;;;;5106172;28;20036;-67
2021/03/02 10:03:35;;;;;;;49.08;25.77;;;3.90;99.90;;;;;;5111244;28;20096;-67
2021/03/02 10:06:02;;;;;;;34.95;17.58;;;4.20;99.90;;;;;;5120036;28;20085;-67
2021/03/02 10:08:40;;;;;;;47.22;25.75;;;4.50;99.90;;;;;;5105333;28;20040;-67
2021/03/02 10:11:12;;;;;;;53.22;27.45;;;4.50;99.90;;;;;;5119085;28;20499;-67
2021/03/02 10:13:59;;;;;;;45.00;24.30;;;4.40;99.90;;;;;;5105737;28;20055;-67
2021/03/02 10:16:31;;;;;;;45.60;25.58;;;4.70;99.90;;;;;;5117077;28;20072;-67
2021/03/02 10:18:58;;;;;;;48.05;27.13;;;5.10;99.90;;;;;;5108844;28;20049;-67
2021/03/02 10:21:46;;;;;;;48.95;26.20;;;5.40;99.90;;;;;;5105962;28;20046;-67
2021/03/02 10:24:28;;;;;;;46.75;24.77;;;5.50;99.90;;;;;;5119145;28;20584;-67
2021/03/02 10:26:58;;;;;;;38.90;22.85;;;5.90;99.90;;;;;;5106219;28;20052;-67
2021/03/02 10:29:25;;;;;;;41.15;24.45;;;6.10;99.90;;;;;;5117938;28;20118;-67
2021/03/02 10:31:51;;;;;;;45.33;24.20;;;6.10;99.90;;;;;;5104975;28;20040;-67
2021/03/02 10:34:17;;;;;;;48.45;24.80;;;6.30;99.90;;;;;;5105084;28;20090;-67
2021/03/02 10:36:45;;;;;;;37.17;23.42;;;6.60;99.90;;;;;;5104925;28;20044;-67
2021/03/02 10:39:13;;;;;;;47.13;25.42;;;6.60;99.90;;;;;;5106837;28;20075;-67
2021/03/02 10:41:39;;;;;;;;;;;6.60;99.90;;;;;;5104979;28;20400;-67
2021/03/02 10:44:06;;;;;;;41.85;21.95;;;6.00;99.90;;;;;;5119475;28;20383;-67
2021/03/02 10:46:32;;;;;;;50.58;24.67;;;5.90;99.90;;;;;;5113350;28;20220;-67
2021/03/02 10:48:59;;;;;;;38.13;17.40;;;5.80;99.90;;;;;;5104408;28;20044;-67
2021/03/02 10:51:26;;;;;;;49.85;28.65;;;5.80;99.90;;;;;;5123206;28;20439;-67
2021/03/02 10:53:53;;;;;;;48.88;25.05;;;5.50;99.90;;;;;;5106168;28;20107;-67
2021/03/02 10:56:19;;;;;;;36.85;17.48;;;5.70;99.90;;;;;;5111048;28;20044;-67
2021/03/02 10:58:46;;;;;;;45.47;23.15;;;6.10;99.90;;;;;;5107972;28;20040;-67
2021/03/02 11:01:12;;;;;;;45.97;24.33;;;6.20;99.90;;;;;;5107221;28;20039;-67
2021/03/02 11:03:39;;;;;;;50.33;24.95;;;6.30;99.90;;;;;;5107505;28;20043;-67
2021/03/02 11:06:05;;;;;;;48.35;25.42;;;6.80;99.90;;;;;;5116303;28;20075;-67
2021/03/02 11:08:31;;;;;;;42.85;24.73;;;7.00;99.90;;;;;;5104304;28;20039;-67
2021/03/02 11:10:56;;;;;;;41.25;24.45;;;7.40;99.90;;;;;;5105529;28;20044;-67
2021/03/02 11:13:22;;;;;;;43.38;25.85;;;7.60;99.90;;;;;;5115004;28;20125;-66
2021/03/02 11:15:48;;;;;;;37.28;17.45;;;7.60;99.90;;;;;;5120336;28;20065;-67
2021/03/02 11:18:14;;;;;;;44.50;24.50;;;7.10;99.90;;;;;;5109824;28;20040;-67
2021/03/02 11:20:45;;;;;;;47.28;26.33;;;6.90;99.90;;;;;;5104339;28;20050;-67
2021/03/02 11:23:12;;;;;;;45.33;26.33;;;7.40;99.90;;;;;;5107670;28;20365;-67
2021/03/02 11:25:39;;;;;;;48.13;23.58;;;7.30;99.90;;;;;;5114674;28;20511;-67
2021/03/02 11:28:06;;;;;;;45.80;25.70;;;7.50;99.90;;;;;;5103666;28;20101;-67
2021/03/02 11:30:33;;;;;;;47.83;26.40;;;7.40;99.90;;;;;;5103810;28;20055;-67
2021/03/02 11:32:59;;;;;;;42.28;24.70;;;7.10;99.90;;;;;;5104614;28;20036;-67
2021/03/02 11:35:25;;;;;;;44.20;22.42;;;7.20;99.90;;;;;;5115214;28;20061;-67
2021/03/02 11:37:51;;;;;;;41.63;19.58;;;7.40;99.90;;;;;;5116677;28;20048;-67
2021/03/02 11:40:18;;;;;;;47.10;24.83;;;7.20;99.90;;;;;;5103202;28;20082;-67
2021/03/02 11:42:44;;;;;;;45.05;26.02;;;7.60;99.90;;;;;;5106316;28;20502;-67
2021/03/02 11:45:12;;;;;;;37.05;21.27;;;8.20;99.90;;;;;;5103658;28;20392;-67
2021/03/02 11:47:38;;;;;;;38.20;22.05;;;8.00;99.90;;;;;;5117732;28;20044;-67
2021/03/02 11:50:06;;;;;;;34.22;18.52;;;8.10;99.90;;;;;;5113662;28;20040;-67
2021/03/02 11:52:32;;;;;;;40.85;24.45;;;8.40;99.90;;;;;;5105694;28;20051;-67
2021/03/02 11:54:58;;;;;;;34.70;19.58;;;8.60;99.90;;;;;;5103996;28;20047;-67
2021/03/02 11:57:24;;;;;;;34.35;21.23;;;9.00;99.90;;;;;;5103656;28;20044;-66
2021/03/02 11:59:50;;;;;;;32.00;21.15;;;9.60;99.90;;;;;;5113857;28;20047;-67
2021/03/02 12:02:16;;;;;;;31.05;21.30;;;10.30;99.90;;;;;;5102513;28;20102;-67
2021/03/02 12:04:43;;;;;;;33.10;20.23;;;10.70;99.90;;;;;;5114174;28;20036;-67
2021/03/02 12:07:09;;;;;;;32.70;20.25;;;10.50;99.90;;;;;;5103542;28;20549;-67
2021/03/02 12:09:36;;;;;;;33.13;23.00;;;10.30;99.90;;;;;;5104223;28;20040;-67
2021/03/02 12:12:03;;;;;;;26.95;17.65;;;10.70;99.90;;;;;;5103741;28;20044;-67
2021/03/02 12:14:29;;;;;;;29.48;21.02;;;10.90;99.90;;;;;;5116437;28;20118;-67
2021/03/02 12:16:55;;;;;;;26.95;18.90;;;11.30;99.90;;;;;;5102877;28;20048;-67
2021/03/02 12:19:21;;;;;;;27.55;19.75;;;10.80;99.90;;;;;;5112838;28;20042;-67
2021/03/02 12:21:47;;;;;;;29.55;20.50;;;10.90;99.90;;;;;;5114191;28;20048;-67
2021/03/02 12:24:13;;;;;;;28.48;21.45;;;11.30;99.90;;;;;;5115250;28;20050;-67
2021/03/02 12:26:39;;;;;;;27.42;20.60;;;11.60;99.80;;;;;;5108317;28;20519;-67
2021/03/02 12:29:05;;;;;;;27.23;18.17;;;11.60;98.40;;;;;;5118788;28;20042;-67
2021/03/02 12:31:31;;;;;;;26.65;20.45;;;11.80;98.60;;;;;;5102695;28;20044;-67
2021/03/02 12:33:56;;;;;;;29.65;20.25;;;11.90;98.40;;;;;;5115547;28;20050;-67
2021/03/02 12:36:22;;;;;;;30.00;21.95;;;12.20;98.00;;;;;;5106758;28;20110;-67
2021/03/02 12:38:48;;;;;;;31.77;21.90;;;12.40;98.80;;;;;;5109006;28;20044;-67
2021/03/02 12:41:14;;;;;;;25.65;20.15;;;12.10;98.00;;;;;;5116492;28;20091;-67
2021/03/02 12:43:40;;;;;;;22.92;15.43;;;12.40;98.10;;;;;;5114706;28;20043;-67